createdAt,value
2022-08-04T00:00:15.003Z,2.30
2022-08-04T00:03:14.934Z,2.40
2022-08-04T00:06:05.460Z,2.40
2022-08-04T00:08:55.619Z,2.42
2022-08-04T00:11:26.506Z,2.42
2022-08-04T00:14:03.250Z,2.42
2022-08-04T00:16:37.553Z,2.30
2022-08-04T00:19:11.304Z,2.20
2022-08-04T00:21:40.079Z,2.37
2022-08-04T00:24:12.995Z,2.30
2022-08-04T00:26:44.289Z,2.40
2022-08-04T00:29:16.777Z,2.55
2022-08-04T00:31:56.054Z,2.87
2022-08-04T00:34:28.191Z,2.28
2022-08-04T00:36:56.679Z,2.50
2022-08-04T00:39:24.661Z,2.12
2022-08-04T00:42:19.827Z,2.28
2022-08-04T00:44:47.490Z,2.47
2022-08-04T00:47:47.945Z,2.53
2022-08-04T00:50:56.063Z,2.15
2022-08-04T00:53:50.024Z,2.30
2022-08-04T00:56:56.911Z,2.33
2022-08-04T01:00:06.303Z,2.20
2022-08-04T01:02:56.790Z,2.40
2022-08-04T01:05:37.663Z,2.67
2022-08-04T01:08:27.642Z,2.60
2022-08-04T01:11:17.268Z,2.37
2022-08-04T01:13:54.071Z,2.55
2022-08-04T01:16:26.837Z,2.22
2022-08-04T01:19:00.829Z,2.45
2022-08-04T01:21:31.215Z,2.10
2022-08-04T01:24:25.867Z,2.35
2022-08-04T01:27:18.078Z,2.50
2022-08-04T01:29:52.534Z,2.17
2022-08-04T01:32:49.926Z,2.40
2022-08-04T01:35:48.558Z,2.42
2022-08-04T01:38:26.075Z,2.50
2022-08-04T01:40:55.396Z,2.37
2022-08-04T01:43:25.865Z,2.50
2022-08-04T01:45:58.966Z,2.45
2022-08-04T01:48:27.441Z,2.33
2022-08-04T01:50:55.864Z,2.75
2022-08-04T01:53:26.295Z,2.45
2022-08-04T01:55:55.704Z,2.42
2022-08-04T01:58:26.672Z,2.97
2022-08-04T02:01:06.674Z,2.80
2022-08-04T02:04:20.332Z,2.50
2022-08-04T02:06:52.255Z,2.78
2022-08-04T02:09:35.159Z,2.33
2022-08-04T02:12:38.298Z,2.28
2022-08-04T02:15:40.765Z,2.60
2022-08-04T02:18:26.548Z,2.60
2022-08-04T02:20:59.470Z,2.78
2022-08-04T02:23:39.980Z,2.33
2022-08-04T02:26:31.250Z,2.75
2022-08-04T02:29:08.245Z,2.70
2022-08-04T02:31:49.777Z,2.53
2022-08-04T02:34:27.346Z,2.78
2022-08-04T02:36:55.107Z,2.80
2022-08-04T02:39:23.409Z,3.00
2022-08-04T02:41:53.655Z,2.90
2022-08-04T02:44:23.411Z,2.92
2022-08-04T02:46:54.574Z,2.70
2022-08-04T02:49:33.572Z,2.30
2022-08-04T02:52:06.887Z,2.67
2022-08-04T02:54:41.411Z,2.50
2022-08-04T02:57:13.117Z,2.42
2022-08-04T02:59:57.391Z,2.85
2022-08-04T03:02:30.614Z,2.87
2022-08-04T03:05:08.502Z,2.58
2022-08-04T03:08:07.060Z,2.83
2022-08-04T03:10:55.805Z,2.72
2022-08-04T03:13:38.305Z,2.50
2022-08-04T03:16:30.744Z,2.62
2022-08-04T03:19:28.341Z,2.37
2022-08-04T03:22:07.993Z,2.40
2022-08-04T03:24:41.329Z,2.58
2022-08-04T03:27:42.638Z,2.75
2022-08-04T03:30:17.152Z,2.70
2022-08-04T03:33:03.102Z,2.42
2022-08-04T03:35:53.852Z,2.80
2022-08-04T03:38:55.645Z,2.78
2022-08-04T03:42:05.555Z,2.40
2022-08-04T03:45:23.148Z,2.53
2022-08-04T03:48:35.350Z,2.37
2022-08-04T03:51:56.009Z,2.67
2022-08-04T03:54:50.960Z,2.35
2022-08-04T03:57:33.882Z,2.75
2022-08-04T04:00:14.234Z,2.58
2022-08-04T04:03:03.539Z,2.50
2022-08-04T04:06:00.057Z,2.70
2022-08-04T04:08:51.694Z,2.50
2022-08-04T04:11:54.199Z,2.62
2022-08-04T04:15:00.481Z,2.45
2022-08-04T04:17:53.638Z,2.70
2022-08-04T04:20:53.030Z,2.70
2022-08-04T04:23:39.137Z,2.75
2022-08-04T04:26:16.145Z,2.53
2022-08-04T04:29:11.310Z,3.30
2022-08-04T04:31:56.269Z,3.10
2022-08-04T04:34:56.263Z,2.50
2022-08-04T04:37:39.198Z,3.25
2022-08-04T04:40:35.735Z,2.58
2022-08-04T04:43:50.889Z,3.10
2022-08-04T04:46:33.936Z,3.08
2022-08-04T04:49:34.611Z,3.05
2022-08-04T04:52:52.125Z,2.67
2022-08-04T04:55:25.749Z,2.55
2022-08-04T04:57:57.561Z,2.70
2022-08-04T05:00:26.295Z,2.33
2022-08-04T05:03:39.542Z,2.60
2022-08-04T05:06:25.957Z,2.40
2022-08-04T05:09:28.918Z,2.92
2022-08-04T05:14:33.016Z,2.70
2022-08-04T05:15:10.750Z,3.17
2022-08-04T05:17:45.039Z,2.85
2022-08-04T05:20:23.258Z,3.20
2022-08-04T05:23:07.274Z,3.00
2022-08-04T05:25:39.909Z,3.00
2022-08-04T05:28:17.086Z,2.85
2022-08-04T05:31:00.904Z,2.50
2022-08-04T05:33:33.311Z,2.55
2022-08-04T05:36:18.619Z,2.87
2022-08-04T05:38:55.494Z,2.80
2022-08-04T05:41:23.395Z,2.62
2022-08-04T05:44:00.364Z,2.87
2022-08-04T05:46:28.177Z,2.70
2022-08-04T05:49:00.734Z,2.50
2022-08-04T05:51:30.629Z,2.70
2022-08-04T05:53:59.138Z,2.83
2022-08-04T05:56:35.894Z,2.37
2022-08-04T05:59:04.145Z,2.15
2022-08-04T06:01:31.992Z,2.50
2022-08-04T06:04:06.806Z,2.67
2022-08-04T06:06:45.010Z,2.60
2022-08-04T06:09:13.151Z,2.35
2022-08-04T06:11:59.145Z,2.53
2022-08-04T06:14:47.351Z,3.00
2022-08-04T06:19:57.589Z,2.53
2022-08-04T06:20:17.895Z,2.70
2022-08-04T06:22:55.733Z,2.35
2022-08-04T06:25:35.850Z,2.47
2022-08-04T06:28:10.198Z,2.37
2022-08-04T06:30:38.307Z,2.10
2022-08-04T06:33:14.929Z,2.70
2022-08-04T06:35:42.710Z,2.22
2022-08-04T06:38:10.477Z,2.35
2022-08-04T06:40:40.399Z,2.28
2022-08-04T06:43:10.858Z,2.40
2022-08-04T06:45:44.387Z,2.70
2022-08-04T06:48:16.150Z,2.45
2022-08-04T06:51:31.298Z,2.53
2022-08-04T06:53:45.120Z,2.53
2022-08-04T06:56:18.869Z,2.20
2022-08-04T06:58:47.027Z,2.53
2022-08-04T07:01:15.239Z,2.37
2022-08-04T07:03:45.463Z,2.50
2022-08-04T07:06:20.097Z,2.65
2022-08-04T07:08:47.999Z,2.55
2022-08-04T07:11:24.217Z,2.17
2022-08-04T07:13:52.006Z,2.75
2022-08-04T07:16:30.754Z,2.20
2022-08-04T07:19:10.328Z,2.60
2022-08-04T07:21:39.301Z,3.00
2022-08-04T07:24:07.331Z,3.85
2022-08-04T07:26:36.093Z,3.20
2022-08-04T07:29:04.104Z,3.65
2022-08-04T07:31:34.665Z,2.67
2022-08-04T07:34:16.691Z,2.30
2022-08-04T07:36:55.221Z,2.60
2022-08-04T07:39:29.615Z,3.60
2022-08-04T07:42:02.313Z,3.08
2022-08-04T07:44:34.116Z,2.58
2022-08-04T07:47:03.699Z,2.67
2022-08-04T07:49:54.935Z,2.92
2022-08-04T07:52:19.545Z,2.67
2022-08-04T07:54:50.348Z,2.55
2022-08-04T07:57:40.769Z,3.03
2022-08-04T08:00:11.137Z,2.70
2022-08-04T08:02:42.361Z,2.62
2022-08-04T08:05:15.337Z,2.60
2022-08-04T08:07:50.513Z,2.53
2022-08-04T08:10:23.067Z,2.70
2022-08-04T08:12:52.309Z,2.70
2022-08-04T08:15:21.884Z,2.47
2022-08-04T08:17:58.264Z,2.55
2022-08-04T08:20:31.609Z,2.47
2022-08-04T08:23:00.670Z,3.00
2022-08-04T08:25:29.291Z,2.90
2022-08-04T08:27:57.187Z,3.10
2022-08-04T08:30:32.241Z,2.72
2022-08-04T08:33:08.975Z,2.78
2022-08-04T08:35:53.782Z,2.75
2022-08-04T08:38:28.984Z,3.25
2022-08-04T08:41:23.264Z,2.70
2022-08-04T08:44:05.639Z,2.62
2022-08-04T08:46:54.014Z,2.60
2022-08-04T08:50:02.539Z,3.00
2022-08-04T08:52:56.322Z,2.42
2022-08-04T08:55:51.920Z,2.80
2022-08-04T08:58:50.614Z,3.03
2022-08-04T09:01:38.066Z,2.62
2022-08-04T09:04:27.719Z,2.75
2022-08-04T09:07:42.253Z,3.10
2022-08-04T09:10:10.194Z,2.72
2022-08-04T09:12:42.932Z,2.92
2022-08-04T09:15:20.144Z,2.75
2022-08-04T09:17:55.914Z,2.70
2022-08-04T09:20:37.139Z,2.70
2022-08-04T09:23:18.336Z,2.62
2022-08-04T09:26:39.738Z,2.53
2022-08-04T09:29:21.708Z,2.95
2022-08-04T09:32:06.778Z,3.10
2022-08-04T09:35:03.713Z,2.87
2022-08-04T09:37:50.088Z,2.90
2022-08-04T09:40:53.224Z,3.20
2022-08-04T09:43:59.359Z,2.85
2022-08-04T09:46:35.687Z,3.08
2022-08-04T09:49:16.083Z,3.22
2022-08-04T09:51:57.911Z,2.60
2022-08-04T09:54:52.890Z,2.83
2022-08-04T09:57:38.934Z,2.80
2022-08-04T10:00:07.844Z,3.00
2022-08-04T10:02:42.089Z,3.00
2022-08-04T10:05:26.163Z,3.00
2022-08-04T10:08:17.310Z,2.80
2022-08-04T10:11:22.471Z,3.10
2022-08-04T10:13:58.204Z,3.20
2022-08-04T10:16:57.625Z,2.90
2022-08-04T10:19:29.983Z,3.17
2022-08-04T10:22:29.204Z,2.65
2022-08-04T10:25:38.993Z,3.05
2022-08-04T10:28:24.905Z,2.87
2022-08-04T10:31:04.773Z,2.97
2022-08-04T10:33:34.233Z,3.08
2022-08-04T10:36:13.313Z,2.90
2022-08-04T10:39:43.163Z,2.85
2022-08-04T10:42:23.948Z,3.03
2022-08-04T10:45:56.087Z,2.83
2022-08-04T10:48:45.542Z,3.03
2022-08-04T10:51:16.361Z,3.20
2022-08-04T10:53:47.029Z,3.30
2022-08-04T10:56:22.596Z,3.10
2022-08-04T10:58:55.011Z,3.05
2022-08-04T11:01:59.949Z,2.97
2022-08-04T11:04:42.765Z,2.85
2022-08-04T11:07:10.881Z,3.33
2022-08-04T11:09:44.110Z,3.10
2022-08-04T11:12:24.751Z,3.40
2022-08-04T11:15:11.147Z,2.97
2022-08-04T11:18:00.526Z,3.10
2022-08-04T11:20:36.787Z,2.95
2022-08-04T11:23:10.778Z,3.05
2022-08-04T11:25:52.261Z,2.90
2022-08-04T11:28:23.795Z,3.08
2022-08-04T11:31:04.823Z,3.28
2022-08-04T11:34:10.738Z,3.00
2022-08-04T11:36:43.035Z,3.20
2022-08-04T11:39:22.929Z,3.05
2022-08-04T11:41:59.231Z,3.03
2022-08-04T11:44:47.272Z,3.45
2022-08-04T11:47:33.321Z,3.20
2022-08-04T11:50:18.357Z,3.40
2022-08-04T11:52:49.197Z,2.72
2022-08-04T11:55:22.484Z,3.00
2022-08-04T11:57:54.044Z,3.40
2022-08-04T12:00:22.507Z,3.55
2022-08-04T12:03:03.394Z,2.90
2022-08-04T12:05:43.101Z,2.97
2022-08-04T12:08:59.964Z,2.70
2022-08-04T12:11:40.742Z,3.78
2022-08-04T12:14:16.429Z,3.47
2022-08-04T12:16:49.882Z,3.10
2022-08-04T12:20:04.531Z,3.37
2022-08-04T12:22:31.260Z,3.10
2022-08-04T12:25:10.165Z,2.87
2022-08-04T12:27:57.826Z,2.60
2022-08-04T12:31:00.654Z,2.70
2022-08-04T12:34:03.587Z,2.65
2022-08-04T12:36:45.784Z,3.00
2022-08-04T12:39:24.546Z,2.90
2022-08-04T12:42:05.877Z,3.03
2022-08-04T12:44:41.073Z,2.65
2022-08-04T12:47:26.376Z,2.80
2022-08-04T12:50:03.028Z,3.00
2022-08-04T12:53:03.708Z,2.85
2022-08-04T12:55:34.563Z,2.65
2022-08-04T12:58:04.099Z,2.87
2022-08-04T13:00:41.764Z,2.90
2022-08-04T13:03:15.347Z,2.72
2022-08-04T13:05:43.741Z,2.30
2022-08-04T13:08:12.650Z,2.65
2022-08-04T13:10:46.979Z,2.80
2022-08-04T13:13:24.890Z,2.53
2022-08-04T13:16:00.221Z,2.42
2022-08-04T13:18:32.678Z,2.47
2022-08-04T13:21:21.355Z,2.47
2022-08-04T13:24:19.767Z,2.70
2022-08-04T13:27:06.208Z,2.90
2022-08-04T13:29:58.219Z,2.55
2022-08-04T13:32:29.120Z,2.42
2022-08-04T13:34:57.478Z,2.70
2022-08-04T13:37:37.280Z,2.30
2022-08-04T13:40:10.455Z,2.42
2022-08-04T13:42:38.422Z,2.55
2022-08-04T13:45:09.561Z,2.30
2022-08-04T13:47:41.726Z,2.03
2022-08-04T13:50:24.604Z,2.30
2022-08-04T13:52:56.414Z,2.87
2022-08-04T13:55:25.769Z,2.30
2022-08-04T13:58:01.247Z,2.25
2022-08-04T14:00:46.421Z,2.40
2022-08-04T14:03:53.605Z,2.15
2022-08-04T14:06:27.201Z,2.60
2022-08-04T14:09:07.729Z,2.37
2022-08-04T14:12:09.821Z,2.30
2022-08-04T14:14:34.421Z,2.53
2022-08-04T14:17:19.811Z,2.35
2022-08-04T14:19:49.869Z,2.42
2022-08-04T14:22:26.885Z,2.60
2022-08-04T14:25:15.699Z,2.40
2022-08-04T14:27:50.908Z,2.80
2022-08-04T14:30:32.118Z,2.50
2022-08-04T14:34:01.662Z,2.15
2022-08-04T14:35:58.659Z,2.20
2022-08-04T14:38:42.282Z,2.40
2022-08-04T14:41:12.601Z,2.22
2022-08-04T14:43:54.720Z,2.40
2022-08-04T14:46:23.697Z,2.12
2022-08-04T14:49:14.206Z,2.12
2022-08-04T14:51:43.729Z,2.20
2022-08-04T14:54:17.660Z,2.20
2022-08-04T14:56:53.858Z,2.20
2022-08-04T14:59:21.799Z,1.90
2022-08-04T15:02:00.326Z,1.92
2022-08-04T15:04:29.556Z,1.83
2022-08-04T15:06:57.438Z,1.90
2022-08-04T15:09:27.743Z,1.95
2022-08-04T15:11:55.629Z,1.80
2022-08-04T15:14:37.085Z,1.90
2022-08-04T15:17:30.026Z,1.80
2022-08-04T15:19:59.128Z,2.12
2022-08-04T15:22:31.929Z,1.92
2022-08-04T15:25:02.611Z,2.00
2022-08-04T15:27:32.781Z,1.92
2022-08-04T15:30:03.120Z,1.92
2022-08-04T15:32:31.919Z,2.03
2022-08-04T15:35:13.208Z,1.90
2022-08-04T15:37:59.054Z,1.80
2022-08-04T15:40:42.353Z,1.60
2022-08-04T15:43:31.004Z,1.87
2022-08-04T15:46:37.421Z,1.60
2022-08-04T15:48:53.289Z,1.40
2022-08-04T15:51:33.054Z,1.75
2022-08-04T15:54:03.564Z,1.80
2022-08-04T15:56:48.330Z,1.85
2022-08-04T15:59:59.136Z,1.37
2022-08-04T16:02:36.486Z,1.70
2022-08-04T16:05:18.407Z,1.48
2022-08-04T16:07:59.711Z,1.65
2022-08-04T16:10:36.447Z,1.50
2022-08-04T16:13:10.948Z,1.65
2022-08-04T16:15:39.627Z,1.52
2022-08-04T16:18:14.208Z,1.50
2022-08-04T16:21:03.598Z,1.45
2022-08-04T16:23:56.817Z,1.30
2022-08-04T16:26:45.107Z,1.40
2022-08-04T16:29:39.939Z,1.62
2022-08-04T16:32:13.730Z,1.58
2022-08-04T16:34:55.151Z,1.42
2022-08-04T16:37:39.730Z,1.60
2022-08-04T16:40:38.120Z,1.67
2022-08-04T16:43:16.651Z,1.40
2022-08-04T16:45:51.922Z,1.75
2022-08-04T16:48:27.029Z,1.62
2022-08-04T16:51:03.457Z,1.55
2022-08-04T16:54:21.128Z,1.83
2022-08-04T16:56:49.295Z,1.80
2022-08-04T16:59:17.199Z,1.80
2022-08-04T17:01:52.139Z,1.67
2022-08-04T17:04:37.457Z,1.80
2022-08-04T17:07:07.062Z,1.65
2022-08-04T17:09:34.953Z,1.67
2022-08-04T17:12:05.471Z,2.00
2022-08-04T17:14:33.346Z,1.75
2022-08-04T17:17:02.844Z,1.80
2022-08-04T17:19:30.704Z,1.80
2022-08-04T17:22:06.043Z,1.80
2022-08-04T17:24:39.282Z,1.67
2022-08-04T17:28:19.547Z,1.60
2022-08-04T17:29:58.084Z,1.55
2022-08-04T17:32:26.278Z,2.17
2022-08-04T17:34:55.682Z,1.50
2022-08-04T17:37:39.951Z,1.60
2022-08-04T17:40:18.625Z,1.73
2022-08-04T17:44:03.723Z,1.60
2022-08-04T17:46:36.909Z,1.83
2022-08-04T17:49:11.319Z,1.85
2022-08-04T17:52:04.874Z,1.65
2022-08-04T17:54:36.616Z,1.85
2022-08-04T17:57:22.150Z,1.90
2022-08-04T17:59:59.590Z,1.42
2022-08-04T18:02:33.069Z,1.40
2022-08-04T18:05:07.372Z,1.55
2022-08-04T18:08:35.125Z,1.85
2022-08-04T18:10:52.695Z,1.60
2022-08-04T18:13:42.296Z,2.00
2022-08-04T18:16:22.606Z,1.67
2022-08-04T18:19:13.856Z,1.73
2022-08-04T18:21:46.730Z,1.70
2022-08-04T18:24:35.607Z,1.62
2022-08-04T18:27:20.427Z,1.90
2022-08-04T18:30:33.986Z,2.00
2022-08-04T18:33:04.348Z,1.75
2022-08-04T18:36:31.208Z,1.87
2022-08-04T18:38:23.333Z,1.87
2022-08-04T18:40:57.662Z,1.73
2022-08-04T18:43:27.810Z,1.80
2022-08-04T18:45:59.618Z,1.60
2022-08-04T18:48:36.401Z,1.85
2022-08-04T18:54:02.558Z,2.20
2022-08-04T18:56:32.426Z,2.47
2022-08-04T18:59:10.377Z,2.00
2022-08-04T19:02:13.325Z,2.50
2022-08-04T19:04:37.852Z,2.50
2022-08-04T19:07:26.597Z,2.75
2022-08-04T19:09:59.663Z,2.25
2022-08-04T19:12:29.986Z,2.50
2022-08-04T19:15:08.799Z,2.62
2022-08-04T19:17:55.049Z,2.10
2022-08-04T19:20:27.969Z,2.30
2022-08-04T19:24:10.811Z,2.03
2022-08-04T19:26:01.681Z,2.50
2022-08-04T19:28:36.528Z,3.42
2022-08-04T19:31:09.655Z,2.78
2022-08-04T19:33:59.279Z,2.83
2022-08-04T19:36:34.644Z,2.30
2022-08-04T19:39:11.427Z,2.10
2022-08-04T19:42:04.243Z,2.20
2022-08-04T19:44:30.593Z,1.90
2022-08-04T19:47:00.792Z,2.17
2022-08-04T19:52:34.107Z,2.25
2022-08-04T19:55:10.771Z,2.10
2022-08-04T20:00:35.819Z,2.65
2022-08-04T20:03:11.240Z,2.30
2022-08-04T20:05:54.743Z,2.22
2022-08-04T20:08:31.257Z,2.90
2022-08-04T20:11:02.145Z,3.15
2022-08-04T20:13:37.458Z,3.08
2022-08-04T20:16:29.418Z,3.17
2022-08-04T20:19:06.196Z,2.67
2022-08-04T20:21:55.024Z,3.35
2022-08-04T20:24:40.245Z,3.10
2022-08-04T20:27:21.711Z,2.97
2022-08-04T20:29:50.728Z,3.00
2022-08-04T20:32:28.684Z,3.35
2022-08-04T20:35:02.787Z,3.37
2022-08-04T20:38:00.116Z,3.50
2022-08-04T20:40:21.244Z,2.80
2022-08-04T20:42:57.220Z,3.37
2022-08-04T20:45:56.889Z,2.80
2022-08-04T20:48:21.358Z,2.75
2022-08-04T20:50:53.686Z,2.45
2022-08-04T20:56:19.359Z,2.75
2022-08-04T20:59:07.833Z,2.90
2022-08-04T21:01:49.072Z,2.85
2022-08-04T21:04:33.303Z,3.70
2022-08-04T21:07:02.968Z,2.90
2022-08-04T21:09:49.937Z,4.18
2022-08-04T21:12:28.614Z,4.30
2022-08-04T21:15:13.595Z,4.22
2022-08-04T21:17:58.277Z,4.12
2022-08-04T21:20:36.123Z,3.35
2022-08-04T21:23:09.692Z,3.12
2022-08-04T21:25:43.624Z,3.20
2022-08-04T21:28:20.172Z,3.08
2022-08-04T21:30:55.842Z,3.28
2022-08-04T21:33:50.222Z,3.37
2022-08-04T21:36:19.614Z,3.30
2022-08-04T21:38:53.853Z,3.30
2022-08-04T21:41:27.004Z,2.75
2022-08-04T21:43:55.450Z,3.20
2022-08-04T21:46:23.295Z,2.60
2022-08-04T21:48:53.547Z,2.40
2022-08-04T21:51:59.623Z,3.10
2022-08-04T21:54:17.295Z,3.28
2022-08-04T21:56:49.279Z,3.37
2022-08-04T21:59:28.461Z,3.03
2022-08-04T22:01:59.965Z,3.00
2022-08-04T22:04:33.489Z,2.87
2022-08-04T22:07:04.075Z,3.20
2022-08-04T22:09:41.396Z,3.10
2022-08-04T22:12:20.955Z,2.85
2022-08-04T22:14:57.758Z,2.90
2022-08-04T22:17:35.734Z,3.60
2022-08-04T22:20:04.901Z,2.78
2022-08-04T22:22:37.809Z,3.08
2022-08-04T22:25:13.291Z,2.92
2022-08-04T22:28:02.555Z,3.00
2022-08-04T22:30:36.863Z,3.30
2022-08-04T22:33:09.575Z,2.80
2022-08-04T22:35:44.235Z,3.00
2022-08-04T22:38:24.499Z,3.30
2022-08-04T22:41:10.659Z,3.00
2022-08-04T22:43:41.618Z,3.08
2022-08-04T22:46:27.459Z,2.95
2022-08-04T22:48:55.304Z,2.83
2022-08-04T22:51:24.014Z,2.95
2022-08-04T22:53:55.295Z,3.00
2022-08-04T22:56:37.739Z,2.95
2022-08-04T22:59:10.011Z,2.47
2022-08-04T23:02:00.734Z,2.55
2022-08-04T23:04:30.505Z,2.75
2022-08-04T23:07:00.589Z,2.75
2022-08-04T23:09:51.129Z,2.95
2022-08-04T23:12:25.620Z,2.40
2022-08-04T23:14:57.979Z,2.50
2022-08-04T23:17:28.940Z,2.97
2022-08-04T23:19:59.268Z,2.53
2022-08-04T23:22:43.038Z,2.65
2022-08-04T23:25:17.190Z,3.03
2022-08-04T23:27:51.444Z,2.65
2022-08-04T23:30:24.718Z,2.62
2022-08-04T23:33:00.036Z,2.83
2022-08-04T23:35:27.974Z,3.00
2022-08-04T23:37:57.835Z,2.58
2022-08-04T23:40:34.758Z,2.83
2022-08-04T23:43:26.084Z,3.08
2022-08-04T23:46:12.536Z,3.20
2022-08-04T23:48:41.003Z,2.80
2022-08-04T23:51:14.241Z,2.90
2022-08-04T23:54:01.858Z,2.90
2022-08-04T23:56:32.488Z,2.58
2022-08-04T23:59:03.491Z,2.70
